Time;durP1;ratioP1;P1;durP2;ratioP2;P2;SDS_P1;SDS_P2;PMS_P1;PMS_P2;Temp;Humidity;BMP_temperature;BMP_pressure;BME280_temperature;BME280_humidity;BME280_pressure;Samples;Min_cycle;Max_cycle;Signal;HPM_P1;HPM_P2
2023/06/08 00:00:09;;;;;;;17.55;10.63;;;11.70;99.90;;;;;;5073153;28;20054;-38
2023/06/08 00:02:35;;;;;;;17.15;11.02;;;11.60;99.90;;;;;;5054714;28;20062;-37
2023/06/08 00:05:02;;;;;;;19.67;10.52;;;11.60;99.90;;;;;;5072188;28;20373;-38
2023/06/08 00:07:29;;;;;;;24.45;11.07;;;11.60;99.90;;;;;;5070911;28;20044;-40
2023/06/08 00:09:57;;;;;;;16.00;9.88;;;11.60;99.90;;;;;;5067058;28;20047;-37
2023/06/08 00:12:24;;;;;;;18.85;10.10;;;11.60;99.90;;;;;;5067489;28;20047;-36
2023/06/08 00:14:50;;;;;;;15.50;10.48;;;11.60;99.90;;;;;;5063031;28;20399;-35
2023/06/08 00:17:16;;;;;;;16.63;10.43;;;11.60;99.90;;;;;;5072621;28;20059;-40
2023/06/08 00:19:42;;;;;;;15.38;9.48;;;11.50;99.90;;;;;;5068762;28;20163;-38
2023/06/08 00:22:12;;;;;;;19.27;10.18;;;11.50;99.90;;;;;;5065791;28;20088;-36
2023/06/08 00:24:38;;;;;;;16.73;10.23;;;11.50;99.90;;;;;;5073205;28;20119;-37
2023/06/08 00:27:05;;;;;;;21.13;10.88;;;11.50;99.90;;;;;;5061349;28;20086;-39
2023/06/08 00:29:32;;;;;;;17.55;9.57;;;11.50;99.90;;;;;;5073221;28;20048;-39
2023/06/08 00:31:57;;;;;;;19.80;10.32;;;11.50;99.90;;;;;;5072019;28;20056;-36
2023/06/08 00:34:24;;;;;;;19.67;10.30;;;11.50;99.90;;;;;;5062776;28;20050;-38
2023/06/08 00:36:50;;;;;;;19.73;11.20;;;11.50;99.90;;;;;;5068027;28;20047;-36
2023/06/08 00:39:16;;;;;;;20.38;11.32;;;11.50;99.90;;;;;;5055044;28;20045;-38
2023/06/08 00:41:42;;;;;;;13.73;9.75;;;11.60;99.90;;;;;;5067670;28;20051;-40
2023/06/08 00:44:08;;;;;;;17.70;9.77;;;11.60;99.90;;;;;;5063931;28;20108;-38
2023/06/08 00:46:35;;;;;;;16.20;10.90;;;11.60;99.90;;;;;;5070583;28;20090;-37
2023/06/08 00:49:01;;;;;;;20.05;10.60;;;11.60;99.90;;;;;;5062935;28;20071;-36
2023/06/08 00:51:33;;;;;;;17.70;11.15;;;11.60;99.90;;;;;;5067833;28;20067;-37
2023/06/08 00:54:00;;;;;;;19.02;9.95;;;11.60;99.90;;;;;;5072931;28;20048;-36
2023/06/08 00:56:27;;;;;;;16.15;10.13;;;11.60;99.90;;;;;;5068448;28;20043;-39
2023/06/08 00:58:56;;;;;;;19.25;11.00;;;11.60;99.90;;;;;;5063685;28;20144;-36
2023/06/08 01:01:24;;;;;;;23.77;10.30;;;11.60;99.90;;;;;;5089127;27;20068;-39
2023/06/08 01:03:55;;;;;;;14.65;9.90;;;11.60;99.90;;;;;;5072749;28;20043;-36
2023/06/08 01:06:21;;;;;;;18.13;9.65;;;11.60;99.90;;;;;;5073022;28;20753;-39
2023/06/08 01:09:24;;;;;;;22.20;11.05;;;11.60;99.90;;;;;;5073621;28;20056;-40
2023/06/08 01:12:33;;;;;;;20.55;10.55;;;11.70;99.90;;;;;;5073490;28;20044;-37
2023/06/08 01:15:23;;;;;;;16.85;10.82;;;11.60;99.90;;;;;;5061775;28;20537;-42
2023/06/08 01:17:57;;;;;;;19.30;11.07;;;11.70;99.90;;;;;;5074851;28;20047;-36
2023/06/08 01:20:29;;;;;;;20.40;11.02;;;11.70;99.90;;;;;;5076630;28;20051;-36
2023/06/08 01:23:34;;;;;;;15.70;11.13;;;11.70;99.90;;;;;;5070438;28;20166;-40
2023/06/08 01:26:02;;;;;;;24.35;14.13;;;11.70;99.90;;;;;;5075654;28;20044;-39
2023/06/08 01:28:30;;;;;;;26.90;14.25;;;11.70;99.90;;;;;;5075903;28;20597;-37
2023/06/08 01:30:58;;;;;;;24.92;16.73;;;11.70;99.90;;;;;;5075878;28;20051;-38
2023/06/08 01:33:27;;;;;;;30.10;18.25;;;11.70;99.90;;;;;;5075280;28;20120;-36
2023/06/08 01:35:59;;;;;;;22.20;16.48;;;11.60;99.90;;;;;;5075061;28;20032;-40
2023/06/08 01:38:55;;;;;;;25.67;16.45;;;11.60;99.90;;;;;;5059303;28;20766;-39
2023/06/08 01:41:26;;;;;;;25.33;17.60;;;11.60;99.90;;;;;;5030389;28;20641;-39
2023/06/08 01:43:53;;;;;;;30.75;18.83;;;11.60;99.90;;;;;;5037701;28;20105;-38
2023/06/08 01:46:24;;;;;;;27.58;18.60;;;11.60;99.90;;;;;;5018383;28;20566;-37
2023/06/08 01:48:51;;;;;;;26.90;19.77;;;11.60;99.90;;;;;;5041120;28;20153;-35
2023/06/08 01:51:19;;;;;;;25.30;18.33;;;11.60;99.90;;;;;;5040601;28;20528;-38
2023/06/08 01:53:45;;;;;;;30.40;18.27;;;11.60;99.90;;;;;;5046236;28;20045;-39
2023/06/08 01:56:11;;;;;;;25.45;17.50;;;11.60;99.90;;;;;;5042001;28;20041;-38
2023/06/08 01:58:36;;;;;;;25.65;17.60;;;11.60;99.90;;;;;;5028347;28;20615;-36
2023/06/08 02:01:02;;;;;;;22.75;14.88;;;11.50;99.90;;;;;;5033183;28;20045;-36
2023/06/08 02:03:27;;;;;;;27.15;16.00;;;11.50;99.90;;;;;;5026335;28;20044;-37
2023/06/08 02:05:53;;;;;;;23.85;14.48;;;11.50;99.90;;;;;;5036863;28;20145;-42
2023/06/08 02:08:19;;;;;;;28.65;15.02;;;11.50;99.90;;;;;;5034924;28;20143;-39
2023/06/08 02:10:44;;;;;;;23.17;14.02;;;11.50;99.90;;;;;;5043701;28;20104;-35
2023/06/08 02:13:10;;;;;;;26.58;15.65;;;11.40;99.90;;;;;;5051563;28;20593;-39
2023/06/08 02:15:35;;;;;;;26.23;15.27;;;11.40;99.90;;;;;;5051024;28;20118;-38
2023/06/08 02:18:01;;;;;;;25.42;15.93;;;11.40;99.90;;;;;;5062047;28;20064;-40
2023/06/08 02:20:27;;;;;;;20.25;15.15;;;11.40;99.90;;;;;;5070430;28;20052;-39
2023/06/08 02:22:52;;;;;;;21.98;14.90;;;11.40;99.90;;;;;;5076033;28;20062;-35
2023/06/08 02:25:18;;;;;;;22.23;14.43;;;11.40;99.90;;;;;;5074562;28;20044;-39
2023/06/08 02:27:44;;;;;;;24.73;14.82;;;11.40;99.90;;;;;;5075688;28;20421;-36
2023/06/08 02:30:11;;;;;;;21.15;13.68;;;11.40;99.90;;;;;;5075910;28;20046;-37
2023/06/08 02:32:41;;;;;;;28.67;13.38;;;11.40;99.90;;;;;;5075499;28;20098;-36
2023/06/08 02:35:08;;;;;;;22.25;13.30;;;11.40;99.90;;;;;;5069930;28;20044;-37
2023/06/08 02:37:36;;;;;;;19.08;13.43;;;11.50;99.90;;;;;;5065781;28;20044;-40
2023/06/08 02:40:04;;;;;;;20.92;13.65;;;11.50;99.90;;;;;;5063813;28;20043;-39
2023/06/08 02:42:30;;;;;;;19.77;12.63;;;11.40;99.90;;;;;;5072149;28;20052;-35
2023/06/08 02:44:56;;;;;;;18.25;11.70;;;11.50;99.90;;;;;;5069368;28;20198;-36
2023/06/08 02:47:21;;;;;;;21.52;12.82;;;11.50;99.90;;;;;;5074858;28;20052;-42
2023/06/08 02:49:47;;;;;;;21.55;13.55;;;11.50;99.90;;;;;;5068339;28;20458;-39
2023/06/08 02:52:13;;;;;;;25.20;13.02;;;11.50;99.90;;;;;;5074460;28;20404;-41
2023/06/08 02:54:38;;;;;;;23.17;13.50;;;11.50;99.90;;;;;;5074674;28;20126;-39
2023/06/08 02:57:05;;;;;;;24.63;13.30;;;11.50;99.90;;;;;;5074029;28;20455;-38
2023/06/08 02:59:31;;;;;;;19.35;12.60;;;11.50;99.90;;;;;;5075203;28;20522;-39
2023/06/08 03:01:57;;;;;;;24.88;12.95;;;11.50;99.90;;;;;;5073958;28;20062;-38
2023/06/08 03:04:25;;;;;;;18.23;11.50;;;11.50;99.90;;;;;;5074705;28;20493;-39
2023/06/08 03:06:54;;;;;;;18.77;11.43;;;11.50;99.90;;;;;;5074234;28;20533;-40
2023/06/08 03:09:24;;;;;;;16.45;11.13;;;11.50;99.90;;;;;;5072260;28;20048;-37
2023/06/08 03:11:51;;;;;;;22.77;12.32;;;11.50;99.90;;;;;;5063393;28;20052;-37
2023/06/08 03:14:18;;;;;;;20.70;11.45;;;11.50;99.90;;;;;;5073669;28;20054;-40
2023/06/08 03:16:47;;;;;;;25.48;12.52;;;11.50;99.90;;;;;;5073719;28;20392;-38
2023/06/08 03:19:14;;;;;;;20.60;12.35;;;11.50;99.90;;;;;;5074195;28;20052;-42
2023/06/08 03:21:41;;;;;;;21.90;12.32;;;11.50;99.90;;;;;;5074006;28;20083;-39
2023/06/08 03:24:08;;;;;;;21.58;13.05;;;11.50;99.90;;;;;;5073330;28;20055;-41
2023/06/08 03:26:33;;;;;;;25.05;13.50;;;11.50;99.90;;;;;;5071557;28;20047;-39
2023/06/08 03:29:00;;;;;;;23.40;13.70;;;11.50;99.90;;;;;;5073621;28;20812;-38
2023/06/08 03:31:26;;;;;;;19.17;13.70;;;11.50;99.90;;;;;;5074356;28;20051;-39
2023/06/08 03:33:51;;;;;;;24.20;14.35;;;11.50;99.90;;;;;;5073618;28;20475;-38
2023/06/08 03:36:18;;;;;;;25.13;14.07;;;11.60;99.90;;;;;;5071447;28;20048;-38
2023/06/08 03:38:43;;;;;;;25.55;15.25;;;11.50;99.90;;;;;;5056471;28;20048;-42
2023/06/08 03:41:09;;;;;;;22.40;14.05;;;11.50;99.90;;;;;;5070426;28;20048;-36
2023/06/08 03:43:35;;;;;;;19.60;14.85;;;11.50;99.90;;;;;;5097688;27;20062;-40
2023/06/08 03:46:01;;;;;;;22.35;14.52;;;11.50;99.90;;;;;;5073905;28;20058;-39
2023/06/08 03:48:27;;;;;;;24.25;14.75;;;11.50;99.90;;;;;;5073842;28;20401;-43
2023/06/08 03:50:52;;;;;;;26.60;15.20;;;11.60;99.90;;;;;;5067775;28;20078;-36
2023/06/08 03:53:18;;;;;;;22.88;15.75;;;11.50;99.90;;;;;;5071932;28;20817;-39
2023/06/08 03:55:44;;;;;;;23.90;17.00;;;11.50;99.90;;;;;;5073590;28;20370;-39
2023/06/08 03:58:12;;;;;;;22.65;14.00;;;11.50;99.90;;;;;;5073369;28;20467;-38
2023/06/08 04:00:38;;;;;;;22.50;15.40;;;11.60;99.90;;;;;;5073987;28;20048;-36
2023/06/08 04:03:05;;;;;;;21.98;14.57;;;11.60;99.90;;;;;;5072546;28;20151;-38
2023/06/08 04:05:30;;;;;;;25.05;15.55;;;11.60;99.90;;;;;;5071403;28;20044;-40
2023/06/08 04:08:01;;;;;;;23.85;14.43;;;11.60;99.90;;;;;;5072327;28;20044;-38
2023/06/08 04:10:26;;;;;;;24.00;13.68;;;11.60;99.90;;;;;;5073900;28;20055;-39
2023/06/08 04:12:52;;;;;;;20.23;13.38;;;11.70;99.90;;;;;;5072105;28;20082;-38
2023/06/08 04:15:18;;;;;;;23.13;12.48;;;11.70;99.90;;;;;;5071150;28;20047;-36
2023/06/08 04:17:46;;;;;;;21.45;12.95;;;11.70;99.90;;;;;;5072624;28;20055;-40
2023/06/08 04:20:12;;;;;;;20.08;12.98;;;11.80;99.90;;;;;;5064587;28;20052;-39
2023/06/08 04:22:38;;;;;;;22.23;12.98;;;11.80;99.90;;;;;;5073127;28;20168;-35
2023/06/08 04:25:05;;;;;;;20.17;13.07;;;11.80;99.90;;;;;;5073053;28;20131;-38
2023/06/08 04:27:31;;;;;;;20.52;12.90;;;11.80;99.90;;;;;;5073257;28;20488;-37
2023/06/08 04:29:57;;;;;;;23.75;13.18;;;11.90;99.90;;;;;;5072255;28;20262;-37
2023/06/08 04:32:23;;;;;;;22.30;12.35;;;11.90;99.90;;;;;;5072187;28;20040;-38
2023/06/08 04:34:49;;;;;;;23.90;13.27;;;11.90;99.90;;;;;;5072852;28;20044;-39
2023/06/08 04:37:15;;;;;;;18.13;11.57;;;12.00;99.90;;;;;;5065687;28;20087;-38
2023/06/08 04:39:41;;;;;;;17.48;11.45;;;12.10;99.90;;;;;;5057889;28;20142;-38
2023/06/08 04:42:08;;;;;;;20.40;11.43;;;12.10;99.90;;;;;;5073359;28;20052;-38
2023/06/08 04:44:34;;;;;;;21.60;11.40;;;12.10;99.90;;;;;;5065744;28;20048;-40
2023/06/08 04:47:01;;;;;;;19.65;10.98;;;12.20;99.90;;;;;;5073041;28;20056;-40
2023/06/08 04:49:31;;;;;;;20.08;9.68;;;12.20;99.90;;;;;;5069201;28;20041;-37
2023/06/08 04:52:00;;;;;;;18.85;10.50;;;12.20;99.90;;;;;;5073677;28;20090;-39
2023/06/08 04:54:27;;;;;;;20.55;10.93;;;12.30;99.90;;;;;;5076598;28;20131;-41
2023/06/08 04:56:58;;;;;;;19.73;10.93;;;12.30;99.90;;;;;;5077055;28;20043;-40
2023/06/08 04:59:27;;;;;;;14.00;9.70;;;12.30;99.90;;;;;;5076542;28;20059;-39
2023/06/08 05:01:54;;;;;;;18.02;10.65;;;12.40;99.90;;;;;;5075614;28;20556;-37
2023/06/08 05:04:19;;;;;;;16.55;10.35;;;12.40;99.90;;;;;;5076979;28;20043;-36
2023/06/08 05:06:45;;;;;;;15.63;8.82;;;12.50;99.90;;;;;;5072867;28;20136;-42
2023/06/08 05:09:12;;;;;;;19.30;8.90;;;12.50;99.90;;;;;;5077423;28;20520;-40
2023/06/08 05:11:38;;;;;;;17.33;8.30;;;12.60;99.90;;;;;;5076633;28;20054;-39
2023/06/08 05:14:04;;;;;;;17.30;8.90;;;12.60;99.90;;;;;;5069746;28;20095;-36
2023/06/08 05:16:30;;;;;;;16.83;8.15;;;12.60;99.90;;;;;;5076508;28;20575;-38
2023/06/08 05:18:55;;;;;;;17.42;8.00;;;12.70;99.90;;;;;;5076985;28;20051;-37
2023/06/08 05:21:21;;;;;;;17.98;7.90;;;12.70;99.90;;;;;;5076864;28;20052;-40
2023/06/08 05:23:47;;;;;;;19.73;8.00;;;12.70;99.90;;;;;;5075726;28;20056;-40
2023/06/08 05:26:13;;;;;;;18.63;8.38;;;12.80;99.90;;;;;;5076630;28;20048;-41
2023/06/08 05:28:38;;;;;;;16.02;8.23;;;12.90;99.90;;;;;;5076548;28;20513;-41
2023/06/08 05:31:04;;;;;;;14.48;7.78;;;13.00;99.90;;;;;;5065134;28;20040;-36
2023/06/08 05:33:30;;;;;;;17.63;8.23;;;13.30;99.90;;;;;;5076348;28;20737;-40
2023/06/08 05:35:55;;;;;;;11.48;7.18;;;14.00;99.90;;;;;;5076159;28;20083;-40
2023/06/08 05:38:21;;;;;;;12.25;6.85;;;14.90;99.90;;;;;;5062399;28;20052;-41
2023/06/08 05:40:47;;;;;;;16.25;7.10;;;15.50;99.90;;;;;;5069302;28;20079;-41
2023/06/08 05:43:13;;;;;;;13.88;6.95;;;16.40;99.90;;;;;;5067577;28;20055;-41
2023/06/08 05:45:38;;;;;;;12.70;7.60;;;17.00;99.90;;;;;;5074152;28;20539;-41
2023/06/08 05:48:04;;;;;;;15.00;7.30;;;17.10;99.90;;;;;;5073657;28;20047;-41
2023/06/08 05:50:30;;;;;;;14.95;7.22;;;16.90;99.90;;;;;;5075140;28;20043;-38
2023/06/08 05:52:56;;;;;;;14.57;7.30;;;16.50;99.90;;;;;;5061740;28;20454;-39
2023/06/08 05:55:22;;;;;;;12.57;6.35;;;16.10;99.90;;;;;;5074535;28;20052;-39
2023/06/08 05:57:47;;;;;;;15.68;7.30;;;15.80;99.90;;;;;;5071810;28;20401;-40
2023/06/08 06:00:14;;;;;;;14.95;7.57;;;15.70;99.90;;;;;;5075916;28;20834;-40
2023/06/08 06:02:41;;;;;;;15.40;7.35;;;15.50;99.90;;;;;;5073692;28;20097;-37
2023/06/08 06:05:10;;;;;;;13.02;7.25;;;15.60;99.90;;;;;;5074717;28;20176;-38
2023/06/08 06:07:36;;;;;;;14.85;6.70;;;15.90;99.90;;;;;;5073959;28;20052;-41
2023/06/08 06:10:06;;;;;;;15.00;6.57;;;16.40;99.90;;;;;;5063938;28;20477;-38
2023/06/08 06:12:32;;;;;;;11.57;6.50;;;17.30;99.90;;;;;;5069830;28;20204;-44
2023/06/08 06:14:58;;;;;;;13.10;7.38;;;18.90;99.90;;;;;;5073131;28;20438;-43
2023/06/08 06:17:24;;;;;;;12.50;7.53;;;20.40;99.90;;;;;;5074159;28;20052;-43
2023/06/08 06:19:50;;;;;;;14.20;7.38;;;21.20;99.90;;;;;;5075488;28;20088;-41
2023/06/08 06:22:16;;;;;;;39.60;8.88;;;21.50;99.90;;;;;;5075267;28;20047;-37
2023/06/08 06:24:42;;;;;;;18.55;7.32;;;22.50;99.90;;;;;;5075270;28;20419;-39
2023/06/08 06:27:07;;;;;;;11.75;6.53;;;23.50;99.90;;;;;;5063501;28;20737;-40
2023/06/08 06:29:34;;;;;;;19.90;7.25;;;23.10;99.90;;;;;;5075895;28;20510;-42
2023/06/08 06:32:00;;;;;;;13.65;7.03;;;23.60;99.90;;;;;;5074993;28;20082;-42
2023/06/08 06:34:25;;;;;;;21.33;6.88;;;24.10;99.80;;;;;;5069844;28;20408;-39
2023/06/08 06:36:51;;;;;;;18.27;7.07;;;24.60;99.90;;;;;;5066303;28;20052;-42
2023/06/08 06:39:19;;;;;;;13.27;6.90;;;25.20;99.40;;;;;;5069979;28;20399;-46
2023/06/08 06:41:45;;;;;;;12.88;6.70;;;24.70;97.80;;;;;;5087962;27;20571;-37
2023/06/08 06:44:19;;;;;;;16.40;6.57;;;25.20;98.70;;;;;;5070815;28;20180;-38
2023/06/08 06:46:45;;;;;;;11.63;6.30;;;25.20;97.30;;;;;;5066624;28;20040;-40
2023/06/08 06:49:11;;;;;;;11.80;6.50;;;25.20;97.80;;;;;;5070528;28;20040;-41
2023/06/08 06:51:37;;;;;;;12.75;6.25;;;25.40;96.90;;;;;;5062487;28;20832;-41
2023/06/08 06:54:03;;;;;;;16.27;7.80;;;25.80;97.50;;;;;;5074255;28;20043;-40
2023/06/08 06:56:29;;;;;;;13.00;6.80;;;25.80;96.70;;;;;;5073533;28;20056;-39
2023/06/08 06:58:55;;;;;;;15.25;6.88;;;25.80;96.70;;;;;;5073516;28;20043;-43
2023/06/08 07:01:23;;;;;;;10.52;6.25;;;25.90;96.70;;;;;;5072550;28;20519;-43
2023/06/08 07:03:49;;;;;;;10.48;6.07;;;25.70;96.30;;;;;;5084975;28;20048;-44
2023/06/08 07:06:15;;;;;;;14.35;5.97;;;26.20;96.80;;;;;;5088232;28;20040;-45
2023/06/08 07:08:44;;;;;;;14.02;6.93;;;26.40;96.40;;;;;;5083588;28;20040;-41
2023/06/08 07:11:11;;;;;;;13.90;7.07;;;26.40;96.10;;;;;;5074497;28;20040;-41
2023/06/08 07:13:37;;;;;;;9.80;6.00;;;26.00;95.80;;;;;;5074138;28;20066;-40
2023/06/08 07:16:03;;;;;;;13.07;5.82;;;25.10;96.30;;;;;;5072591;28;20044;-39
2023/06/08 07:18:29;;;;;;;12.95;6.60;;;24.90;96.30;;;;;;5074642;28;20412;-44
2023/06/08 07:20:55;;;;;;;13.40;6.68;;;24.90;97.50;;;;;;5074783;28;20052;-43
2023/06/08 07:23:21;;;;;;;14.18;7.05;;;24.40;96.60;;;;;;5073690;28;20402;-39
2023/06/08 07:25:46;;;;;;;17.23;7.35;;;23.00;98.30;;;;;;5073555;28;20048;-43
2023/06/08 07:28:12;;;;;;;13.48;6.78;;;22.60;99.90;;;;;;5074576;28;20044;-39
2023/06/08 07:30:38;;;;;;;13.52;6.63;;;22.40;99.90;;;;;;5072213;28;20075;-38
2023/06/08 07:33:03;;;;;;;13.32;6.70;;;22.40;99.90;;;;;;5073251;28;20091;-42
2023/06/08 07:35:29;;;;;;;13.55;6.95;;;21.60;99.90;;;;;;5072423;28;20213;-43
2023/06/08 07:37:55;;;;;;;13.98;7.10;;;21.70;99.90;;;;;;5059362;28;20044;-39
2023/06/08 07:40:21;;;;;;;15.23;7.22;;;21.90;99.90;;;;;;5063966;28;20046;-38
2023/06/08 07:42:47;;;;;;;14.63;6.70;;;22.10;99.90;;;;;;5066773;28;20762;-44
2023/06/08 07:45:13;;;;;;;14.80;7.20;;;21.50;99.90;;;;;;5068752;28;20484;-45
2023/06/08 07:47:41;;;;;;;17.52;7.57;;;21.40;99.90;;;;;;5064205;28;20579;-39
2023/06/08 07:50:07;;;;;;;15.18;7.60;;;21.70;99.90;;;;;;5068748;28;20114;-38
2023/06/08 07:52:33;;;;;;;14.30;7.85;;;21.10;99.90;;;;;;5066562;28;20562;-37
2023/06/08 07:54:59;;;;;;;14.90;7.00;;;21.30;99.90;;;;;;5062546;28;20048;-43
2023/06/08 07:57:25;;;;;;;19.13;8.15;;;21.20;99.90;;;;;;5076208;28;20051;-42
2023/06/08 07:59:50;;;;;;;16.45;6.78;;;21.40;99.90;;;;;;5054467;28;20432;-40
2023/06/08 08:02:16;;;;;;;14.70;7.28;;;21.50;99.90;;;;;;5078855;28;20443;-44
2023/06/08 08:04:42;;;;;;;18.77;7.28;;;21.50;99.90;;;;;;5075068;28;20171;-43
2023/06/08 08:07:07;;;;;;;14.88;7.22;;;21.60;99.90;;;;;;5071468;28;20476;-38
2023/06/08 08:09:33;;;;;;;15.32;6.78;;;21.70;99.90;;;;;;5080360;28;20391;-41
2023/06/08 08:11:59;;;;;;;18.02;6.70;;;21.20;99.90;;;;;;5081628;28;20162;-39
2023/06/08 08:14:25;;;;;;;13.23;6.50;;;21.40;99.90;;;;;;5078163;28;20467;-41
2023/06/08 08:16:51;;;;;;;15.55;7.70;;;21.70;99.90;;;;;;5080899;28;20052;-45
2023/06/08 08:19:17;;;;;;;10.98;5.68;;;21.50;99.90;;;;;;5076315;28;20050;-45
2023/06/08 08:21:42;;;;;;;16.48;7.45;;;21.60;99.90;;;;;;5067848;28;20040;-39
2023/06/08 08:24:09;;;;;;;15.30;7.40;;;21.10;99.90;;;;;;5073771;28;20573;-38
2023/06/08 08:26:36;;;;;;;13.52;5.93;;;21.30;99.90;;;;;;5074216;28;20089;-37
2023/06/08 08:29:02;;;;;;;14.40;6.65;;;21.20;99.90;;;;;;5080387;28;20051;-38
2023/06/08 08:31:28;;;;;;;17.83;7.30;;;21.30;99.90;;;;;;5083372;28;20048;-40
2023/06/08 08:33:53;;;;;;;13.23;6.47;;;21.30;99.90;;;;;;5072147;28;20055;-38
2023/06/08 08:36:19;;;;;;;12.95;7.03;;;21.40;99.90;;;;;;5074808;28;20055;-41
2023/06/08 08:38:45;;;;;;;16.45;7.85;;;21.30;99.90;;;;;;5070044;28;20396;-43
2023/06/08 08:41:13;;;;;;;12.07;6.63;;;21.40;99.90;;;;;;5074269;28;20472;-44
2023/06/08 08:44:07;;;;;;;13.27;6.68;;;21.40;99.90;;;;;;5067674;28;20040;-39
2023/06/08 08:46:34;;;;;;;14.30;7.35;;;21.40;99.90;;;;;;5077685;28;20036;-38
2023/06/08 08:49:04;;;;;;;17.52;7.20;;;21.30;99.90;;;;;;5072182;28;20506;-37
2023/06/08 08:51:32;;;;;;;14.00;7.10;;;21.60;99.90;;;;;;5062570;28;20055;-42
2023/06/08 08:54:00;;;;;;;14.00;6.75;;;21.70;99.90;;;;;;5076829;28;20511;-36
2023/06/08 08:56:28;;;;;;;12.93;6.72;;;21.40;99.90;;;;;;5076047;28;20043;-43
2023/06/08 08:58:54;;;;;;;15.57;6.68;;;21.20;99.90;;;;;;5077070;28;20223;-42
2023/06/08 09:01:25;;;;;;;13.68;7.00;;;21.30;99.90;;;;;;5068364;28;21081;-39
2023/06/08 09:03:52;;;;;;;13.43;7.72;;;21.30;99.90;;;;;;5063516;28;20417;-40
2023/06/08 09:06:18;;;;;;;12.00;6.07;;;21.20;99.90;;;;;;5068983;28;20063;-39
2023/06/08 09:08:44;;;;;;;15.77;7.00;;;21.40;99.90;;;;;;5074008;28;20705;-44
2023/06/08 09:11:10;;;;;;;11.57;6.45;;;21.50;99.90;;;;;;5075452;28;20054;-41
2023/06/08 09:13:40;;;;;;;13.82;6.60;;;21.70;99.90;;;;;;5075438;28;20040;-42
2023/06/08 09:16:09;;;;;;;15.05;6.88;;;21.70;99.90;;;;;;5075427;28;20040;-44
2023/06/08 09:18:36;;;;;;;14.27;7.13;;;21.70;99.90;;;;;;5077156;28;20055;-40
2023/06/08 09:21:29;;;;;;;14.95;7.05;;;21.60;99.90;;;;;;5081233;28;20051;-43
2023/06/08 09:24:18;;;;;;;14.98;7.18;;;21.70;99.90;;;;;;5073131;28;20531;-44
2023/06/08 09:26:49;;;;;;;15.57;7.88;;;21.40;99.90;;;;;;5086269;28;20043;-43
2023/06/08 09:29:36;;;;;;;13.20;7.15;;;21.00;99.90;;;;;;5077225;28;20432;-40
2023/06/08 09:32:03;;;;;;;12.38;7.10;;;21.50;99.90;;;;;;5081895;28;20040;-40
2023/06/08 09:34:35;;;;;;;13.40;8.55;;;21.60;99.90;;;;;;5082724;28;20581;-42
2023/06/08 09:37:08;;;;;;;15.15;7.90;;;21.80;99.90;;;;;;5077769;28;20036;-37
2023/06/08 09:39:45;;;;;;;13.20;7.00;;;22.00;99.90;;;;;;5079503;28;20035;-43
2023/06/08 09:42:11;;;;;;;18.63;7.30;;;22.30;99.90;;;;;;5062910;28;20123;-38
2023/06/08 09:44:38;;;;;;;18.48;7.32;;;22.30;99.90;;;;;;5082257;28;20512;-40
2023/06/08 09:47:25;;;;;;;14.20;6.63;;;22.40;99.90;;;;;;5066336;28;20861;-45
2023/06/08 09:49:54;;;;;;;14.02;6.95;;;22.40;99.90;;;;;;5072483;28;20032;-43
2023/06/08 09:52:22;;;;;;;12.98;6.55;;;22.00;99.90;;;;;;5067976;28;20441;-43
2023/06/08 09:54:48;;;;;;;24.70;7.78;;;22.20;99.90;;;;;;5068467;28;20086;-42
2023/06/08 09:57:17;;;;;;;14.40;6.68;;;22.10;99.90;;;;;;5073358;28;20524;-43
2023/06/08 10:00:17;;;;;;;18.50;7.30;;;22.00;99.90;;;;;;5063795;28;20044;-42
2023/06/08 10:03:14;;;;;;;14.13;6.95;;;22.20;99.90;;;;;;5073899;28;20360;-43
2023/06/08 10:05:45;;;;;;;20.02;6.80;;;22.00;99.90;;;;;;5067708;28;20051;-43
2023/06/08 10:08:15;;;;;;;15.45;6.60;;;22.20;99.90;;;;;;5072016;28;20052;-43
2023/06/08 10:10:41;;;;;;;14.85;6.40;;;22.30;99.90;;;;;;5072372;28;20041;-38
2023/06/08 10:13:10;;;;;;;12.50;6.30;;;22.30;99.90;;;;;;5072349;28;20036;-38
2023/06/08 10:15:36;;;;;;;14.10;5.88;;;22.40;99.90;;;;;;5074019;28;20509;-39
2023/06/08 10:18:03;;;;;;;13.93;6.57;;;22.60;99.90;;;;;;5076025;28;20044;-45
2023/06/08 10:20:30;;;;;;;11.25;6.00;;;22.50;99.90;;;;;;5075725;28;20422;-41
2023/06/08 10:22:58;;;;;;;14.25;6.05;;;22.60;99.90;;;;;;5075539;28;20093;-38
2023/06/08 10:25:28;;;;;;;11.90;6.60;;;22.60;99.90;;;;;;5074675;28;20040;-44
2023/06/08 10:27:54;;;;;;;14.18;5.80;;;22.60;99.90;;;;;;5074342;28;20083;-41
2023/06/08 10:30:31;;;;;;;10.98;6.05;;;22.50;99.90;;;;;;5075149;28;20079;-39
2023/06/08 10:33:07;;;;;;;11.73;5.63;;;22.40;99.90;;;;;;5074908;28;20044;-39
2023/06/08 10:35:33;;;;;;;16.42;6.03;;;22.70;99.90;;;;;;5064086;28;20504;-46
2023/06/08 10:38:11;;;;;;;14.52;6.13;;;22.70;99.90;;;;;;5076154;28;20481;-44
2023/06/08 10:40:50;;;;;;;12.80;5.65;;;22.60;99.90;;;;;;5082500;28;20055;-42
2023/06/08 10:43:16;;;;;;;13.50;5.90;;;22.50;99.90;;;;;;5079316;28;20062;-41
2023/06/08 10:45:46;;;;;;;11.77;6.07;;;22.60;99.90;;;;;;5078409;28;20043;-45
2023/06/08 10:48:16;;;;;;;15.07;6.10;;;22.70;99.90;;;;;;5077916;28;20048;-42
2023/06/08 10:50:43;;;;;;;15.02;6.57;;;22.80;99.90;;;;;;5079866;28;20477;-41
2023/06/08 10:53:08;;;;;;;13.65;7.05;;;22.60;99.90;;;;;;5096520;27;20044;-37
2023/06/08 10:55:34;;;;;;;18.58;6.45;;;22.60;99.90;;;;;;5101626;27;20099;-45
2023/06/08 10:58:20;;;;;;;16.05;6.93;;;22.60;99.90;;;;;;5075150;28;20312;-46
2023/06/08 11:00:50;;;;;;;10.05;7.05;;;22.70;99.90;;;;;;5075051;28;20051;-37
2023/06/08 11:03:18;;;;;;;12.38;6.22;;;22.90;99.90;;;;;;5074127;28;20048;-47
2023/06/08 11:05:50;;;;;;;14.82;6.88;;;22.90;99.90;;;;;;5074672;28;20040;-42
2023/06/08 11:08:17;;;;;;;14.25;7.22;;;22.90;99.90;;;;;;5074655;28;20054;-42
2023/06/08 11:10:49;;;;;;;14.15;6.57;;;22.90;99.90;;;;;;5069109;28;20044;-43
2023/06/08 11:13:16;;;;;;;12.50;6.43;;;23.00;99.90;;;;;;5074705;28;20051;-40
2023/06/08 11:15:44;;;;;;;10.50;5.78;;;23.10;99.90;;;;;;5073956;28;20074;-41
2023/06/08 11:18:10;;;;;;;9.88;5.90;;;23.00;99.90;;;;;;5072753;28;20113;-47
2023/06/08 11:20:38;;;;;;;11.27;6.32;;;22.90;99.90;;;;;;5059776;28;20055;-37
2023/06/08 11:23:09;;;;;;;10.75;6.47;;;22.80;99.90;;;;;;5071431;28;20044;-44
2023/06/08 11:25:35;;;;;;;20.67;6.03;;;22.90;99.90;;;;;;5068945;28;20040;-46
2023/06/08 11:28:02;;;;;;;17.90;7.07;;;23.00;99.90;;;;;;5073016;28;20051;-38
2023/06/08 11:30:31;;;;;;;10.60;5.18;;;23.00;99.90;;;;;;5073537;28;20533;-37
2023/06/08 11:32:57;;;;;;;12.00;5.70;;;23.00;99.90;;;;;;5074161;28;20040;-38
2023/06/08 11:35:23;;;;;;;15.18;5.78;;;23.00;99.90;;;;;;5072441;28;20048;-44
2023/06/08 11:38:01;;;;;;;13.77;5.82;;;23.00;99.90;;;;;;5066354;28;20512;-37
2023/06/08 11:40:28;;;;;;;9.88;5.22;;;23.00;99.50;;;;;;5065202;28;20048;-40
2023/06/08 11:42:55;;;;;;;8.00;4.88;;;22.80;99.40;;;;;;5064424;28;20090;-41
2023/06/08 11:45:22;;;;;;;12.43;5.32;;;22.70;99.70;;;;;;5063358;28;20508;-37
2023/06/08 11:47:53;;;;;;;9.93;4.95;;;22.80;99.90;;;;;;5061261;28;20056;-45
2023/06/08 11:50:18;;;;;;;9.32;5.13;;;22.70;99.90;;;;;;5095691;27;20072;-41
2023/06/08 11:52:46;;;;;;;12.27;5.32;;;22.80;99.90;;;;;;5077062;28;20463;-42
2023/06/08 11:55:15;;;;;;;11.40;4.95;;;22.70;99.70;;;;;;5081813;28;20027;-41
2023/06/08 11:57:47;;;;;;;7.50;5.10;;;22.70;99.90;;;;;;5089684;28;20399;-41
2023/06/08 12:00:32;;;;;;;7.70;5.10;;;22.90;99.90;;;;;;5072772;28;20050;-41
2023/06/08 12:03:00;;;;;;;11.32;5.78;;;23.00;99.90;;;;;;5078233;28;20173;-40
2023/06/08 12:05:31;;;;;;;11.60;6.93;;;22.60;99.90;;;;;;5084339;28;20055;-41
2023/06/08 12:07:58;;;;;;;11.40;6.80;;;22.80;99.90;;;;;;5087066;28;20104;-40
2023/06/08 12:10:34;;;;;;;14.68;6.85;;;22.90;99.90;;;;;;5075818;28;20040;-40
2023/06/08 12:13:18;;;;;;;14.27;7.60;;;22.90;99.90;;;;;;5089555;27;20105;-40
2023/06/08 12:15:49;;;;;;;12.70;6.15;;;22.80;99.90;;;;;;5072822;28;20052;-41
2023/06/08 12:18:16;;;;;;;13.00;5.97;;;22.80;99.90;;;;;;5073439;28;20421;-40
2023/06/08 12:20:44;;;;;;;11.88;5.95;;;23.00;99.90;;;;;;5074116;28;20052;-40
2023/06/08 12:23:12;;;;;;;10.10;5.20;;;22.70;99.90;;;;;;5073304;28;20055;-40
2023/06/08 12:25:39;;;;;;;12.70;5.85;;;22.70;99.90;;;;;;5073045;28;20048;-41
2023/06/08 12:28:05;;;;;;;10.85;5.95;;;22.80;99.90;;;;;;5073612;28;20044;-43
2023/06/08 12:30:31;;;;;;;11.25;6.28;;;22.80;99.90;;;;;;5072378;28;20637;-40
2023/06/08 12:32:58;;;;;;;15.88;7.72;;;22.80;99.90;;;;;;5072360;28;20086;-40
2023/06/08 12:35:24;;;;;;;13.38;7.30;;;22.70;99.90;;;;;;5072644;28;20565;-41
2023/06/08 12:37:50;;;;;;;17.38;7.68;;;22.60;99.90;;;;;;5061811;28;20049;-40